Tuesday, November 13, 2018, 7:38 PM EST
Back to Local

KNEL, Lakehurst Naval Air Station

Location: Lakehurst, NJ, United States Lat: 40.033
Local Time: 7:38 PM EST ( 0:38 GMT) Lon: -74.317
Time Zone: US/Eastern Elev: 101 ft

Show me the last for .
Show Decoded

2018-11-13 19:00 METAR KNEL 140000Z 30012G19KT 10SM OVC085 08/02 A3005 RMK AO2 SLP173 6////
                 T00780022 10106 20078 51035 PNO =
2018-11-13 18:00 METAR KNEL 132300Z 30009G15KT 10SM OVC080 08/03 A3001 RMK AO2 SLP161 T00830033
                 PNO =
2018-11-13 17:00 METAR KNEL 132200Z 30012KT 10SM OVC080 08/04 A2998 RMK AO2 SLP150 T00830039 PNO
                 =
2018-11-13 16:00 METAR KNEL 132100Z 30010G16KT 10SM OVC090 09/06 A2994 RMK AO2 SLP139 6////
                 T00940056 50006 PNO =
2018-11-13 15:00 METAR KNEL 132000Z 30011G19KT 10SM SCT017 10/08 A2991 RMK AO2 SLP127 T01000078
                 PNO =
2018-11-13 14:57 METAR KNEL 131957Z 29011G19KT 10SM SCT017 10/08 A2991 RMK AO2 PRESRR PNO =
2018-11-13 14:06 METAR KNEL 131906Z 31012G19KT 7SM BKN016 10/08 A2989 RMK AO2 SLP121 T01000078
                 PNO $ =
2018-11-13 14:00 METAR KNEL 131900Z 30013G18KT 7SM BKN016 10/08 A2989 RMK AO2 PRESRR PNO $ =
2018-11-13 13:00 METAR KNEL 131800Z 30011G19KT OVC013 10/09 A2987 RMK AO2 SLP113 6//// T01000089
                 10144 20100 53008 PNO $ =
2018-11-13 12:51 METAR KNEL 131751Z 30011KT OVC011 10/09 A2987 =
2018-11-13 12:00 METAR KNEL 131700Z 30013KT OVC005 11/11 A2984 RMK AO2 SLP103 T01060106 PNO $ =
2018-11-13 11:44 METAR KNEL 131644Z 30009KT OVC005 11/11 A2983 =
2018-11-13 11:21 METAR KNEL 131621Z 31009G14KT 4SM BR OVC004 11/11 A2982 =
2018-11-13 11:06 METAR KNEL 131606Z 31007G17KT 4SM BR OVC005 11/11 A2982 RMK AO2 SLP097 T01060106
                 PNO $ =
2018-11-13 11:00 METAR KNEL 131600Z 31008KT 4SM BR OVC005 11/11 A2982 RMK AO2 PNO $ =
2018-11-13 10:00 METAR KNEL 131500Z 30012G17KT OVC003 11/11 A2981 RMK AO2 RAE1415 SLP095 6////
                 T01110111 56039 PNO $ =
2018-11-13 09:15 METAR KNEL 131415Z 30005KT BKN004 OVC008 13/13 A2981 RMK AO2 RAE15 T01280128 PNO
                 $ =
2018-11-13 09:04 METAR KNEL 131404Z 30006KT -RA SCT005 BKN008 OVC012 13/13 A2982 RMK AO2
                 T01280128 PNO $ =
2018-11-13 09:00 METAR KNEL 131400Z 31005KT 2SM -RA BR SCT005 OVC012 13/13 A2982 RMK AO2 SLP095
                 T01280128 PNO $ =
2018-11-13 08:42 METAR KNEL 131342Z 29005KT 2SM -RA BR SCT004 OVC010 13/13 A2982 =
2018-11-13 08:28 METAR KNEL 131328Z 35006KT 2SM -RA BR BKN004 OVC010 13/13 A2983 RMK AO2
                 T01330133 PNO $ =
2018-11-13 08:00 METAR KNEL 131300Z 07004KT 3SM -RA BR FEW004 BKN010 OVC027 14/14 A2984 RMK AO2
                 SLP103 T01390139 PNO $ =
2018-11-13 07:45 METAR KNEL 131245Z 07007KT 3SM -RA BR FEW004 BKN011 OVC021 14/14 A2984 RMK AO2
                 T01390139 PNO $ =
2018-11-13 07:35 METAR KNEL 131235Z 08006KT 3SM -RA BR SCT004 SCT009 OVC017 14/14 A2985 =
2018-11-13 07:28 METAR KNEL 131228Z 14004KT 3SM RA BR SCT004 OVC012 13/13 A2986 RMK AO2 T01280128
                 PNO $ =
2018-11-13 07:06 METAR KNEL 131206Z 06005KT 2SM RA BR OVC005 13/13 A2988 =
2018-11-13 07:00 METAR KNEL 131200Z 04004KT RA OVC004 13/13 A2988 RMK AO2 SLP118 P0004 6////
                 7//// T01280128 10128 20078 58057 $ =
2018-11-13 06:42 METAR KNEL 131142Z AUTO 06005KT RA BKN004 OVC009 12/12 A2989 RMK AO2 P0004
                 T01220122 $ =
2018-11-13 06:33 METAR KNEL 131133Z AUTO 06006KT +RA BKN005 BKN008 OVC015 12/12 A2989 RMK AO2
                 P0004 T01220122 $ =
2018-11-13 06:22 METAR KNEL 131122Z AUTO VRB06KT RA SCT007 OVC017 12/12 A2990 RMK AO2 PRESFR
                 P0004 T01170117 $ =
2018-11-13 06:00 METAR KNEL 131100Z AUTO 04007KT +RA OVC021 12/12 A2993 RMK AO2 PRESFR SLP134
                 P0006 T01170117 $ =
2018-11-13 05:23 METAR KNEL 131023Z AUTO 05004KT RA FEW005 BKN016 OVC040 11/11 A2998 RMK AO2
                 PRESFR P0004 T01110111 $ =
2018-11-13 05:12 METAR KNEL 131012Z AUTO 01006KT +RA BKN005 BKN008 OVC029 11/11 A3000 RMK AO2
                 PRESFR P0003 T01110111 $ =
2018-11-13 05:00 METAR KNEL 131000Z AUTO 36006KT +RA BKN003 BKN012 OVC027 11/11 A3002 RMK AO2
                 SLP163 T01110111 PNO $ =
2018-11-13 04:00 METAR KNEL 130900Z AUTO 05005KT -RA OVC002 11/11 A3003 RMK AO2 SLP169 6////
                 T01060106 56048 PNO $ =
2018-11-13 03:00 METAR KNEL 130800Z AUTO 06004KT RA BKN003 OVC010 09/09 A3010 RMK AO2 SLP191
                 T00940094 PNO $ =
2018-11-13 02:00 METAR KNEL 130700Z AUTO 00000KT -RA BKN003 BKN008 OVC012 09/09 A3015 RMK AO2
                 SLP208 T00890089 PNO $ =
2018-11-13 01:19 METAR KNEL 130619Z AUTO 00000KT RA OVC003 08/08 A3018 =
2018-11-13 01:07 METAR KNEL 130607Z AUTO 00000KT -RA BKN005 BKN018 OVC027 08/08 A3018 =
2018-11-13 01:00 METAR KNEL 130600Z AUTO 00000KT RA SCT005 BKN018 OVC031 08/08 A3019 RMK AO2
                 SLP221 6//// T00830083 10083 20056 56023 PNO $ =
2018-11-13 00:52 METAR KNEL 130552Z AUTO 00000KT RA FEW007 BKN026 OVC031 08/08 A3019 RMK AO2
                 T00830083 PNO $ =
2018-11-13 00:25 METAR KNEL 130525Z AUTO 00000KT RA FEW023 OVC029 08/08 A3022 =
2018-11-13 00:00 METAR KNEL 130500Z AUTO 06004KT RA OVC033 07/07 A3024 RMK AO2 SLP239 T00720072
                 400720072 PNO $ =
2018-11-12 23:00 METAR KNEL 130400Z AUTO 00000KT -RA SCT028 OVC038 07/07 A3025 RMK AO2 SLP243
                 P0000 T00720067 $ =
2018-11-12 22:00 METAR KNEL 130300Z AUTO 05003KT -RA FEW028 OVC055 07/06 A3029 RMK AO2 RAB0203
                 SLP254 P0000 60000 T00720061 58016 $ =
2018-11-12 21:00 METAR KNEL 130200Z AUTO 00000KT OVC030 08/05 A3031 RMK AO2 SLP262 T00780050 $ =
2018-11-12 20:00 METAR KNEL 130100Z AUTO 00000KT BKN032 OVC120 06/04 A3033 RMK AO2 SLP271
                 T00610044 $ =

Support USWX by starting your Amazon purchase here.